LNI222 WIMK-WMSA
Flight info
| Callsign | LNI222 |
|---|---|
| Flight time | 0h 34m |
| Altitude | 23000 |
| Route | PUGER G582 GOBAS CE1 |
| Aircraft | B739/M-SDE2E3FGHIRWXY/LB1 |
Departure
| Time | 2026-05-05 14:43 |
|---|---|
| Airport | Soewondo Air Force Base (WIMK) |
Arrival
| Time | 2026-05-05 15:17 |
|---|---|
| Airport | Sultan Abdul Aziz Shah International Airport (WMSA) |
| Time | Latitude | Longitude | Altitude | Speed | Heading |
|---|---|---|---|---|---|
| 2026-05-05 14:18 | 3.56696 | 98.67769 | 61 ft | 0 kts | 360° |
| 2026-05-05 14:31 | 3.56684 | 98.67769 | 67 ft | 2 kts | 0° |
| 2026-05-05 14:31 | 3.56667 | 98.67769 | 65 ft | 2 kts | 1° |
| 2026-05-05 14:31 | 3.56651 | 98.67768 | 63 ft | 2 kts | 1° |
| 2026-05-05 14:32 | 3.56634 | 98.67768 | 63 ft | 2 kts | 3° |
| 2026-05-05 14:32 | 3.56617 | 98.67766 | 63 ft | 2 kts | 7° |
| 2026-05-05 14:32 | 3.56601 | 98.67763 | 63 ft | 2 kts | 20° |
| 2026-05-05 14:32 | 3.56588 | 98.67755 | 67 ft | 2 kts | 50° |
| 2026-05-05 14:33 | 3.56584 | 98.67751 | 66 ft | 0 kts | 53° |
| 2026-05-05 14:34 | 3.56593 | 98.67763 | 64 ft | 6 kts | 56° |
| 2026-05-05 14:35 | 3.56630 | 98.67802 | 62 ft | 9 kts | 46° |
| 2026-05-05 14:35 | 3.56678 | 98.67852 | 62 ft | 11 kts | 46° |
| 2026-05-05 14:35 | 3.56729 | 98.67910 | 61 ft | 8 kts | 53° |
| 2026-05-05 14:35 | 3.56734 | 98.67916 | 62 ft | 0 kts | 53° |
| 2026-05-05 14:38 | 3.56735 | 98.67918 | 60 ft | 2 kts | 53° |
| 2026-05-05 14:38 | 3.56757 | 98.67959 | 68 ft | 9 kts | 70° |
| 2026-05-05 14:39 | 3.56762 | 98.68024 | 70 ft | 10 kts | 101° |
| 2026-05-05 14:39 | 3.56731 | 98.68081 | 68 ft | 9 kts | 135° |
| 2026-05-05 14:39 | 3.56699 | 98.68095 | 68 ft | 2 kts | 193° |
| 2026-05-05 14:39 | 3.56686 | 98.68088 | 67 ft | 2 kts | 213° |
| 2026-05-05 14:40 | 3.56675 | 98.68079 | 70 ft | 2 kts | 221° |
| 2026-05-05 14:40 | 3.56668 | 98.68072 | 68 ft | 0 kts | 224° |
| 2026-05-05 14:42 | 3.56664 | 98.68068 | 67 ft | 4 kts | 224° |
| 2026-05-05 14:42 | 3.56495 | 98.67893 | 70 ft | 76 kts | 226° |
| 2026-05-05 14:42 | 3.55943 | 98.67321 | 78 ft | 149 kts | 226° |
| 2026-05-05 14:42 | 3.55114 | 98.66445 | 367 ft | 184 kts | 226° |
| 2026-05-05 14:43 | 3.54257 | 98.65537 | 1385 ft | 174 kts | 226° |
| 2026-05-05 14:43 | 3.53352 | 98.64634 | 1990 ft | 196 kts | 225° |
| 2026-05-05 14:43 | 3.52297 | 98.63602 | 2246 ft | 224 kts | 225° |
| 2026-05-05 14:43 | 3.51119 | 98.62451 | 2477 ft | 247 kts | 225° |
| 2026-05-05 14:44 | 3.49866 | 98.61226 | 3046 ft | 256 kts | 225° |
| 2026-05-05 14:44 | 3.48582 | 98.59971 | 3844 ft | 258 kts | 225° |
| 2026-05-05 14:44 | 3.47291 | 98.58708 | 4600 ft | 265 kts | 225° |
| 2026-05-05 14:44 | 3.45961 | 98.57405 | 5183 ft | 275 kts | 225° |
| 2026-05-05 14:45 | 3.44496 | 98.56144 | 5895 ft | 281 kts | 209° |
| 2026-05-05 14:45 | 3.42618 | 98.55570 | 6655 ft | 282 kts | 181° |
| 2026-05-05 14:45 | 3.40705 | 98.55904 | 7358 ft | 284 kts | 155° |
| 2026-05-05 14:45 | 3.39128 | 98.57089 | 8071 ft | 286 kts | 128° |
| 2026-05-05 14:46 | 3.38251 | 98.58865 | 8781 ft | 288 kts | 103° |
| 2026-05-05 14:46 | 3.38051 | 98.60860 | 9504 ft | 290 kts | 91° |
| 2026-05-05 14:46 | 3.38057 | 98.62899 | 10174 ft | 294 kts | 89° |
| 2026-05-05 14:46 | 3.38107 | 98.65004 | 10476 ft | 313 kts | 88° |
| 2026-05-05 14:47 | 3.38167 | 98.67257 | 10633 ft | 334 kts | 88° |
| 2026-05-05 14:47 | 3.38225 | 98.69657 | 10772 ft | 354 kts | 89° |
| 2026-05-05 14:47 | 3.38277 | 98.72192 | 10907 ft | 372 kts | 89° |
| 2026-05-05 14:47 | 3.38323 | 98.74826 | 11194 ft | 382 kts | 89° |
| 2026-05-05 14:48 | 3.38363 | 98.77456 | 11691 ft | 385 kts | 89° |
| 2026-05-05 14:48 | 3.38399 | 98.80149 | 12277 ft | 386 kts | 89° |
| 2026-05-05 14:48 | 3.38432 | 98.82840 | 12823 ft | 388 kts | 89° |
| 2026-05-05 14:48 | 3.38465 | 98.85551 | 13335 ft | 391 kts | 89° |
| 2026-05-05 14:49 | 3.38496 | 98.88276 | 13815 ft | 393 kts | 89° |
| 2026-05-05 14:49 | 3.38527 | 98.91020 | 14252 ft | 396 kts | 89° |
| 2026-05-05 14:49 | 3.38559 | 98.93785 | 14692 ft | 398 kts | 89° |
| 2026-05-05 14:49 | 3.38590 | 98.96533 | 15112 ft | 400 kts | 89° |
| 2026-05-05 14:50 | 3.38621 | 98.99348 | 15534 ft | 402 kts | 89° |
| 2026-05-05 14:50 | 3.38653 | 99.02154 | 15942 ft | 404 kts | 89° |
| 2026-05-05 14:50 | 3.38684 | 99.04975 | 16359 ft | 406 kts | 89° |
| 2026-05-05 14:50 | 3.38705 | 99.06849 | 16613 ft | 408 kts | 89° |
| 2026-05-05 14:51 | 3.38737 | 99.09699 | 16998 ft | 410 kts | 89° |
| 2026-05-05 14:51 | 3.38780 | 99.13495 | 17499 ft | 413 kts | 89° |
| 2026-05-05 14:51 | 3.38812 | 99.16374 | 17867 ft | 415 kts | 89° |
| 2026-05-05 14:51 | 3.38833 | 99.18300 | 18106 ft | 416 kts | 89° |
| 2026-05-05 14:52 | 3.38865 | 99.21205 | 18416 ft | 418 kts | 89° |
| 2026-05-05 14:52 | 3.38897 | 99.24121 | 18713 ft | 420 kts | 89° |
| 2026-05-05 14:52 | 3.38930 | 99.27047 | 19014 ft | 421 kts | 89° |
| 2026-05-05 14:52 | 3.38962 | 99.29992 | 19306 ft | 423 kts | 89° |
| 2026-05-05 14:53 | 3.38994 | 99.32946 | 19573 ft | 426 kts | 89° |
| 2026-05-05 14:53 | 3.39027 | 99.35917 | 19843 ft | 427 kts | 89° |
| 2026-05-05 14:53 | 3.39059 | 99.38897 | 20122 ft | 429 kts | 90° |
| 2026-05-05 14:53 | 3.39092 | 99.41891 | 20384 ft | 431 kts | 90° |
| 2026-05-05 14:54 | 3.39124 | 99.44892 | 20634 ft | 433 kts | 90° |
| 2026-05-05 14:54 | 3.39157 | 99.47918 | 20893 ft | 435 kts | 90° |
| 2026-05-05 14:54 | 3.39189 | 99.50913 | 21132 ft | 436 kts | 90° |
| 2026-05-05 14:54 | 3.39222 | 99.53957 | 21375 ft | 438 kts | 90° |
| 2026-05-05 14:55 | 3.39266 | 99.58042 | 21686 ft | 440 kts | 90° |
| 2026-05-05 14:55 | 3.39287 | 99.60080 | 21839 ft | 441 kts | 90° |
| 2026-05-05 14:55 | 3.39320 | 99.63157 | 22094 ft | 442 kts | 90° |
| 2026-05-05 14:55 | 3.39353 | 99.66201 | 22735 ft | 432 kts | 90° |
| 2026-05-05 14:56 | 3.39385 | 99.69209 | 22986 ft | 434 kts | 90° |
| 2026-05-05 14:56 | 3.39417 | 99.72246 | 23016 ft | 438 kts | 90° |
| 2026-05-05 14:56 | 3.39449 | 99.75302 | 23033 ft | 441 kts | 90° |
| 2026-05-05 14:56 | 3.39481 | 99.78383 | 23035 ft | 445 kts | 90° |
| 2026-05-05 14:57 | 3.39513 | 99.81491 | 23038 ft | 448 kts | 90° |
| 2026-05-05 14:57 | 3.39546 | 99.84621 | 23039 ft | 451 kts | 90° |
| 2026-05-05 14:57 | 3.39579 | 99.87767 | 23037 ft | 453 kts | 90° |
| 2026-05-05 14:57 | 3.39611 | 99.90933 | 23040 ft | 455 kts | 90° |
| 2026-05-05 14:58 | 3.39644 | 99.94106 | 23041 ft | 457 kts | 90° |
| 2026-05-05 14:58 | 3.39677 | 99.97296 | 23041 ft | 459 kts | 90° |
| 2026-05-05 14:58 | 3.39710 | 100.00491 | 23041 ft | 460 kts | 90° |
| 2026-05-05 14:58 | 3.39743 | 100.03695 | 23040 ft | 461 kts | 90° |
| 2026-05-05 14:59 | 3.39776 | 100.06911 | 23040 ft | 463 kts | 90° |
| 2026-05-05 14:59 | 3.39808 | 100.10134 | 23041 ft | 463 kts | 90° |
| 2026-05-05 14:59 | 3.39841 | 100.13364 | 23045 ft | 464 kts | 90° |
| 2026-05-05 14:59 | 3.39874 | 100.16593 | 23043 ft | 465 kts | 90° |
| 2026-05-05 15:00 | 3.39906 | 100.19837 | 23042 ft | 466 kts | 90° |
| 2026-05-05 15:00 | 3.39928 | 100.21984 | 23042 ft | 466 kts | 90° |
| 2026-05-05 15:00 | 3.39971 | 100.26324 | 23044 ft | 467 kts | 90° |
| 2026-05-05 15:00 | 3.39989 | 100.29576 | 23044 ft | 467 kts | 91° |
| 2026-05-05 15:01 | 3.39866 | 100.32826 | 23043 ft | 467 kts | 93° |
| 2026-05-05 15:01 | 3.39655 | 100.36070 | 23055 ft | 467 kts | 94° |
| 2026-05-05 15:01 | 3.39409 | 100.39317 | 23052 ft | 468 kts | 95° |
| 2026-05-05 15:01 | 3.39161 | 100.42559 | 23048 ft | 468 kts | 94° |
| 2026-05-05 15:02 | 3.38920 | 100.45814 | 23050 ft | 468 kts | 94° |
| 2026-05-05 15:02 | 3.38691 | 100.49050 | 23036 ft | 459 kts | 94° |
| 2026-05-05 15:02 | 3.38479 | 100.52170 | 22890 ft | 441 kts | 94° |
| 2026-05-05 15:02 | 3.38279 | 100.55193 | 22446 ft | 429 kts | 94° |
| 2026-05-05 15:03 | 3.38085 | 100.58134 | 21521 ft | 421 kts | 94° |
| 2026-05-05 15:03 | 3.37892 | 100.61055 | 20444 ft | 420 kts | 94° |
| 2026-05-05 15:03 | 3.37701 | 100.63965 | 19503 ft | 415 kts | 94° |
| 2026-05-05 15:03 | 3.37511 | 100.66827 | 18686 ft | 409 kts | 94° |
| 2026-05-05 15:04 | 3.37325 | 100.69644 | 17816 ft | 403 kts | 94° |
| 2026-05-05 15:04 | 3.37141 | 100.72421 | 16874 ft | 397 kts | 94° |
| 2026-05-05 15:04 | 3.36958 | 100.75167 | 15938 ft | 393 kts | 94° |
| 2026-05-05 15:04 | 3.36778 | 100.77884 | 15034 ft | 390 kts | 94° |
| 2026-05-05 15:05 | 3.36423 | 100.83221 | 13291 ft | 382 kts | 94° |
| 2026-05-05 15:05 | 3.36248 | 100.85855 | 12398 ft | 378 kts | 94° |
| 2026-05-05 15:05 | 3.36076 | 100.88445 | 11555 ft | 373 kts | 94° |
| 2026-05-05 15:06 | 3.35903 | 100.91041 | 10831 ft | 367 kts | 94° |
| 2026-05-05 15:06 | 3.35738 | 100.93519 | 10723 ft | 352 kts | 94° |
| 2026-05-05 15:06 | 3.35578 | 100.95932 | 10559 ft | 340 kts | 94° |
| 2026-05-05 15:06 | 3.35435 | 100.98256 | 10398 ft | 329 kts | 93° |
| 2026-05-05 15:07 | 3.35302 | 101.00512 | 10252 ft | 319 kts | 93° |
| 2026-05-05 15:07 | 3.35175 | 101.02695 | 10114 ft | 309 kts | 93° |
| 2026-05-05 15:07 | 3.35050 | 101.04811 | 9969 ft | 300 kts | 93° |
| 2026-05-05 15:07 | 3.34929 | 101.06853 | 9929 ft | 287 kts | 93° |
| 2026-05-05 15:08 | 3.34809 | 101.08874 | 9346 ft | 295 kts | 93° |
| 2026-05-05 15:08 | 3.34689 | 101.10898 | 8928 ft | 296 kts | 93° |
| 2026-05-05 15:08 | 3.34566 | 101.12949 | 8581 ft | 295 kts | 93° |
| 2026-05-05 15:08 | 3.34442 | 101.14997 | 8219 ft | 294 kts | 93° |
| 2026-05-05 15:09 | 3.34315 | 101.17039 | 7866 ft | 293 kts | 93° |
| 2026-05-05 15:09 | 3.34188 | 101.19072 | 7518 ft | 292 kts | 93° |
| 2026-05-05 15:09 | 3.34062 | 101.21092 | 7160 ft | 287 kts | 93° |
| 2026-05-05 15:09 | 3.33940 | 101.23064 | 6819 ft | 280 kts | 93° |
| 2026-05-05 15:10 | 3.33820 | 101.24984 | 6490 ft | 273 kts | 93° |
| 2026-05-05 15:10 | 3.33705 | 101.26836 | 6180 ft | 269 kts | 93° |
| 2026-05-05 15:10 | 3.33589 | 101.28702 | 5851 ft | 268 kts | 93° |
| 2026-05-05 15:10 | 3.33472 | 101.30590 | 5509 ft | 268 kts | 93° |
| 2026-05-05 15:11 | 3.33358 | 101.32431 | 5193 ft | 268 kts | 93° |
| 2026-05-05 15:11 | 3.33241 | 101.34307 | 4963 ft | 264 kts | 93° |
| 2026-05-05 15:11 | 3.33130 | 101.36090 | 4832 ft | 256 kts | 93° |
| 2026-05-05 15:11 | 3.33022 | 101.37839 | 4710 ft | 247 kts | 93° |
| 2026-05-05 15:12 | 3.32916 | 101.39527 | 4592 ft | 239 kts | 93° |
| 2026-05-05 15:12 | 3.32811 | 101.41176 | 4367 ft | 236 kts | 96° |
| 2026-05-05 15:12 | 3.32264 | 101.42684 | 4113 ft | 231 kts | 128° |
| 2026-05-05 15:12 | 3.31041 | 101.43679 | 3883 ft | 226 kts | 154° |
| 2026-05-05 15:13 | 3.29779 | 101.44557 | 3502 ft | 224 kts | 128° |
| 2026-05-05 15:13 | 3.28784 | 101.45729 | 3123 ft | 223 kts | 145° |
| 2026-05-05 15:13 | 3.27447 | 101.46441 | 2868 ft | 215 kts | 151° |
| 2026-05-05 15:13 | 3.26180 | 101.47189 | 2599 ft | 208 kts | 149° |
| 2026-05-05 15:14 | 3.24966 | 101.47921 | 2332 ft | 197 kts | 149° |
| 2026-05-05 15:14 | 3.23828 | 101.48596 | 2056 ft | 184 kts | 149° |
| 2026-05-05 15:14 | 3.22757 | 101.49227 | 1829 ft | 172 kts | 150° |
| 2026-05-05 15:14 | 3.21782 | 101.49802 | 1652 ft | 157 kts | 149° |
| 2026-05-05 15:15 | 3.20844 | 101.50355 | 1427 ft | 152 kts | 149° |
| 2026-05-05 15:15 | 3.19939 | 101.50889 | 1253 ft | 154 kts | 149° |
| 2026-05-05 15:15 | 3.19016 | 101.51434 | 1056 ft | 154 kts | 149° |
| 2026-05-05 15:15 | 3.18093 | 101.51978 | 878 ft | 153 kts | 149° |
| 2026-05-05 15:16 | 3.17179 | 101.52517 | 695 ft | 152 kts | 149° |
| 2026-05-05 15:16 | 3.16276 | 101.53050 | 499 ft | 151 kts | 149° |
| 2026-05-05 15:16 | 3.15369 | 101.53579 | 286 ft | 151 kts | 149° |
| 2026-05-05 15:16 | 3.14465 | 101.54114 | 113 ft | 150 kts | 148° |
| 2026-05-05 15:17 | 3.13649 | 101.54596 | 92 ft | 115 kts | 150° |
| 2026-05-05 15:17 | 3.13082 | 101.54928 | 91 ft | 73 kts | 150° |
| 2026-05-05 15:17 | 3.12830 | 101.55080 | 89 ft | 18 kts | 138° |
| 2026-05-05 15:17 | 3.12759 | 101.55177 | 92 ft | 17 kts | 114° |
| 2026-05-05 15:18 | 3.12733 | 101.55237 | 91 ft | 5 kts | 114° |
| 2026-05-05 15:18 | 3.12720 | 101.55266 | 90 ft | 5 kts | 114° |
| 2026-05-05 15:18 | 3.12708 | 101.55296 | 90 ft | 4 kts | 106° |
| 2026-05-05 15:18 | 3.12718 | 101.55326 | 90 ft | 6 kts | 47° |
| 2026-05-05 15:19 | 3.12762 | 101.55332 | 93 ft | 7 kts | 345° |
| 2026-05-05 15:19 | 3.12806 | 101.55311 | 90 ft | 7 kts | 330° |
| 2026-05-05 15:19 | 3.12856 | 101.55282 | 90 ft | 10 kts | 330° |
| 2026-05-05 15:19 | 3.12928 | 101.55240 | 90 ft | 14 kts | 329° |
| 2026-05-05 15:20 | 3.13020 | 101.55187 | 92 ft | 16 kts | 329° |
| 2026-05-05 15:20 | 3.13112 | 101.55132 | 91 ft | 15 kts | 329° |
| 2026-05-05 15:20 | 3.13176 | 101.55096 | 90 ft | 8 kts | 335° |
| 2026-05-05 15:20 | 3.13222 | 101.55115 | 90 ft | 8 kts | 62° |
| 2026-05-05 15:21 | 3.13224 | 101.55168 | 90 ft | 7 kts | 108° |
| 2026-05-05 15:21 | 3.13213 | 101.55205 | 90 ft | 6 kts | 106° |
| 2026-05-05 15:21 | 3.13212 | 101.55214 | 90 ft | 1 kts | 89° |
| 2026-05-05 15:21 | 3.13221 | 101.55233 | 90 ft | 4 kts | 41° |
| 2026-05-05 15:22 | 3.13230 | 101.55233 | 92 ft | 1 kts | 349° |
| 2026-05-05 15:22 | 3.13239 | 101.55231 | 90 ft | 1 kts | 350° |
| 2026-05-05 15:22 | 3.13245 | 101.55232 | 91 ft | 0 kts | 1° |